Time;durP1;ratioP1;P1;durP2;ratioP2;P2;SDS_P1;SDS_P2;PMS_P1;PMS_P2;Temp;Humidity;BMP_temperature;BMP_pressure;BME280_temperature;BME280_humidity;BME280_pressure;Samples;Min_cycle;Max_cycle;Signal;HPM_P1;HPM_P2
2021/03/11 00:00:26;;;;;;;28.98;19.55;;;7.40;85.80;;;;;;4992831;28;20042;-89
2021/03/11 00:02:52;;;;;;;20.88;13.57;;;7.40;85.70;;;;;;4993210;28;20061;-88
2021/03/11 00:05:19;;;;;;;24.08;16.55;;;7.40;85.50;;;;;;4991159;28;20038;-88
2021/03/11 00:07:45;;;;;;;22.83;13.80;;;7.40;85.40;;;;;;4993472;28;20031;-87
2021/03/11 00:10:11;;;;;;;22.60;14.63;;;7.50;85.20;;;;;;4991641;28;20089;-87
2021/03/11 00:12:44;;;;;;;20.30;14.27;;;7.50;85.00;;;;;;4991407;28;20027;-88
2021/03/11 00:15:15;;;;;;;26.73;17.98;;;7.50;85.00;;;;;;4993205;28;20042;-87
2021/03/11 00:17:41;;;;;;;25.08;16.25;;;7.50;84.90;;;;;;4992725;28;20030;-87
2021/03/11 00:20:12;;;;;;;25.95;15.48;;;7.50;84.80;;;;;;4992465;28;20374;-89
2021/03/11 00:22:38;;;;;;;23.30;15.55;;;7.50;84.60;;;;;;4985270;28;20068;-89
2021/03/11 00:25:05;;;;;;;27.27;16.98;;;7.50;84.50;;;;;;4983457;28;20450;-89
2021/03/11 00:27:31;;;;;;;20.48;13.07;;;7.50;84.40;;;;;;4991035;28;20022;-89
2021/03/11 00:29:56;;;;;;;25.60;15.93;;;7.60;84.40;;;;;;4991935;28;20619;-89
2021/03/11 00:32:22;;;;;;;21.98;14.10;;;7.60;84.30;;;;;;4986985;28;20023;-89
2021/03/11 00:34:48;;;;;;;20.95;13.80;;;7.60;84.30;;;;;;4989092;28;20370;-88
2021/03/11 00:37:14;;;;;;;21.52;14.77;;;7.60;84.30;;;;;;4984110;28;20128;-88
2021/03/11 00:39:40;;;;;;;26.88;17.15;;;7.60;84.30;;;;;;4986666;28;20102;-86
2021/03/11 00:42:06;;;;;;;22.15;14.75;;;7.60;84.30;;;;;;4986741;28;20046;-87
2021/03/11 00:44:31;;;;;;;20.58;14.00;;;7.60;84.30;;;;;;4989843;28;20025;-88
2021/03/11 00:46:57;;;;;;;21.33;14.73;;;7.60;84.40;;;;;;4987720;28;20026;-87
2021/03/11 00:49:23;;;;;;;22.05;14.90;;;7.60;84.40;;;;;;4983478;28;20105;-87
2021/03/11 00:51:48;;;;;;;22.25;14.70;;;7.60;84.20;;;;;;4985950;28;20505;-87
2021/03/11 00:54:14;;;;;;;26.02;15.55;;;7.60;84.10;;;;;;4982493;28;20117;-87
2021/03/11 00:56:40;;;;;;;18.00;11.75;;;7.70;84.00;;;;;;4991557;28;20065;-88
2021/03/11 00:59:05;;;;;;;19.20;13.48;;;7.70;83.90;;;;;;4992066;28;20106;-89
2021/03/11 01:01:31;;;;;;;20.92;13.60;;;7.70;83.80;;;;;;4987815;28;20117;-88
2021/03/11 01:03:57;;;;;;;19.58;13.68;;;7.70;83.60;;;;;;4982231;28;20042;-88
2021/03/11 01:06:22;;;;;;;14.98;9.90;;;7.70;83.60;;;;;;4992299;28;20030;-86
2021/03/11 01:08:48;;;;;;;19.42;13.80;;;7.80;83.60;;;;;;4986855;28;20030;-89
2021/03/11 01:11:13;;;;;;;16.98;11.38;;;7.80;83.40;;;;;;4992499;28;20029;-87
2021/03/11 01:13:39;;;;;;;23.50;14.70;;;7.80;83.40;;;;;;4990122;28;20037;-87
2021/03/11 01:16:05;;;;;;;19.70;13.65;;;7.80;83.30;;;;;;4989070;28;20026;-89
2021/03/11 01:18:31;;;;;;;19.70;13.95;;;7.80;83.30;;;;;;4981364;28;20437;-89
2021/03/11 01:20:56;;;;;;;18.42;12.95;;;7.80;83.30;;;;;;4991024;28;20046;-89
2021/03/11 01:23:22;;;;;;;19.45;13.25;;;7.90;83.30;;;;;;4991105;28;20097;-88
2021/03/11 01:25:48;;;;;;;15.93;10.55;;;7.90;83.40;;;;;;4989792;28;20499;-88
2021/03/11 01:28:13;;;;;;;22.17;15.45;;;7.90;83.40;;;;;;4990094;28;20026;-87
2021/03/11 01:30:39;;;;;;;17.75;12.00;;;7.90;83.40;;;;;;4990399;28;20072;-87
2021/03/11 01:33:05;;;;;;;18.73;13.52;;;7.90;83.50;;;;;;4991069;28;20046;-88
2021/03/11 01:35:30;;;;;;;22.77;15.82;;;8.00;83.70;;;;;;4991136;28;20115;-89
2021/03/11 01:37:56;;;;;;;19.52;14.32;;;8.00;83.90;;;;;;4989386;28;20030;-88
2021/03/11 01:40:22;;;;;;;24.48;17.27;;;7.90;84.10;;;;;;4981859;28;20125;-88
2021/03/11 01:42:47;;;;;;;22.75;15.27;;;7.90;84.40;;;;;;4986674;28;20030;-88
2021/03/11 01:45:15;;;;;;;21.58;15.27;;;7.90;84.70;;;;;;4991797;28;20080;-89
2021/03/11 01:47:41;;;;;;;21.75;15.45;;;7.90;84.90;;;;;;4991315;28;20033;-89
2021/03/11 01:50:07;;;;;;;23.77;15.90;;;7.90;85.10;;;;;;4976280;28;20130;-89
2021/03/11 01:52:34;;;;;;;21.65;15.98;;;7.90;85.30;;;;;;4980941;28;20022;-88
2021/03/11 01:55:01;;;;;;;20.52;14.27;;;7.90;85.90;;;;;;4987815;28;20125;-89
2021/03/11 01:57:27;;;;;;;22.17;16.65;;;7.90;85.40;;;;;;4991890;28;20023;-88
2021/03/11 01:59:53;;;;;;;15.43;10.45;;;8.00;85.50;;;;;;4988384;28;20093;-88
2021/03/11 02:02:19;;;;;;;17.88;11.35;;;8.00;85.40;;;;;;4985896;28;21470;-86
2021/03/11 02:04:44;;;;;;;20.10;13.27;;;8.00;85.30;;;;;;4984104;28;20054;-87
2021/03/11 02:07:10;;;;;;;17.15;11.07;;;8.00;85.30;;;;;;4985925;28;20031;-88
2021/03/11 02:09:36;;;;;;;17.85;12.48;;;8.00;85.30;;;;;;4988993;28;20106;-87
2021/03/11 02:12:26;;;;;;;19.60;13.05;;;8.10;85.30;;;;;;4986442;28;20087;-87
2021/03/11 02:15:12;;;;;;;14.88;11.80;;;8.10;85.30;;;;;;4991291;28;20033;-85
2021/03/11 02:18:02;;;;;;;15.00;10.85;;;8.10;85.30;;;;;;4983189;28;20076;-87
2021/03/11 02:20:54;;;;;;;18.13;12.68;;;8.10;85.10;;;;;;4993397;28;20023;-86
2021/03/11 02:23:40;;;;;;;17.08;11.88;;;8.10;85.10;;;;;;4994804;28;20120;-88
2021/03/11 02:26:28;;;;;;;17.88;13.85;;;8.10;85.20;;;;;;4994427;28;20244;-87
2021/03/11 02:29:03;;;;;;;15.10;10.70;;;8.10;85.30;;;;;;4993154;28;20048;-88
2021/03/11 02:31:37;;;;;;;14.65;10.93;;;8.10;85.40;;;;;;4994368;28;20050;-87
2021/03/11 02:34:12;;;;;;;14.88;9.77;;;8.10;85.40;;;;;;4991800;28;20492;-87
2021/03/11 02:36:38;;;;;;;19.15;13.70;;;8.10;85.50;;;;;;4990003;28;20037;-87
2021/03/11 02:39:08;;;;;;;18.05;13.27;;;8.10;85.60;;;;;;4985023;28;20570;-87
2021/03/11 02:41:36;;;;;;;17.02;12.27;;;8.20;85.80;;;;;;4992756;28;20081;-85
2021/03/11 02:44:02;;;;;;;12.70;8.98;;;8.10;85.80;;;;;;4990719;28;20030;-85
2021/03/11 02:46:28;;;;;;;11.93;8.55;;;8.20;85.90;;;;;;4988103;28;20031;-87
2021/03/11 02:48:54;;;;;;;15.15;11.25;;;8.20;85.90;;;;;;4988190;28;20671;-86
2021/03/11 02:51:21;;;;;;;13.40;10.05;;;8.20;86.00;;;;;;4990484;28;20026;-86
2021/03/11 02:53:48;;;;;;;16.83;11.65;;;8.20;86.00;;;;;;4988668;28;20440;-85
2021/03/11 02:56:15;;;;;;;14.70;9.70;;;8.20;86.10;;;;;;4989601;28;20042;-86
2021/03/11 02:58:42;;;;;;;10.45;7.90;;;8.20;86.10;;;;;;4974670;28;20023;-87
2021/03/11 03:01:08;;;;;;;15.45;11.48;;;8.30;86.00;;;;;;4992067;28;20404;-87
2021/03/11 03:03:36;;;;;;;14.02;9.57;;;8.30;86.20;;;;;;4979210;28;20022;-86
2021/03/11 03:06:02;;;;;;;9.25;7.00;;;8.30;86.20;;;;;;4991083;28;20066;-85
2021/03/11 03:08:29;;;;;;;11.27;8.27;;;8.30;86.10;;;;;;4978371;28;20022;-86
2021/03/11 03:10:55;;;;;;;15.13;11.20;;;8.30;86.00;;;;;;4981650;28;20050;-86
2021/03/11 03:13:22;;;;;;;10.38;7.95;;;8.30;86.20;;;;;;4983321;28;20026;-86
2021/03/11 03:15:49;;;;;;;9.52;7.40;;;8.30;86.30;;;;;;4991423;28;20066;-86
2021/03/11 03:18:17;;;;;;;12.70;10.25;;;8.40;86.20;;;;;;4992130;28;20112;-87
2021/03/11 03:20:45;;;;;;;14.35;11.95;;;8.40;86.20;;;;;;4989415;28;20492;-88
2021/03/11 03:23:11;;;;;;;13.30;10.50;;;8.40;86.20;;;;;;4984420;28;20023;-87
2021/03/11 03:25:37;;;;;;;10.45;8.10;;;8.40;86.20;;;;;;4992855;28;20033;-86
2021/03/11 03:28:03;;;;;;;12.25;9.75;;;8.50;86.10;;;;;;4991635;28;20026;-88
2021/03/11 03:30:28;;;;;;;11.82;9.63;;;8.50;86.00;;;;;;4990630;28;20436;-88
2021/03/11 03:32:55;;;;;;;10.30;8.50;;;8.50;86.10;;;;;;4986286;28;20030;-87
2021/03/11 03:35:24;;;;;;;14.65;8.77;;;8.50;86.10;;;;;;4987028;28;20030;-89
2021/03/11 03:37:52;;;;;;;11.80;9.35;;;8.60;86.20;;;;;;4977965;28;20022;-88
2021/03/11 03:40:19;;;;;;;12.10;9.88;;;8.60;86.50;;;;;;4982212;28;20023;-87
2021/03/11 03:42:53;;;;;;;9.50;7.20;;;8.50;86.50;;;;;;4989199;28;20042;-87
2021/03/11 03:45:26;;;;;;;12.05;8.70;;;8.60;86.70;;;;;;4990737;28;20072;-86
2021/03/11 03:47:52;;;;;;;11.23;8.40;;;8.60;87.00;;;;;;4992771;28;20026;-88
2021/03/11 03:50:19;;;;;;;10.30;8.18;;;8.60;87.20;;;;;;4992399;28;20511;-87
2021/03/11 03:52:47;;;;;;;12.57;9.55;;;8.60;87.30;;;;;;4988300;28;20022;-86
2021/03/11 03:55:13;;;;;;;9.85;7.72;;;8.60;87.40;;;;;;4992447;28;20026;-86
2021/03/11 03:57:45;;;;;;;12.27;9.57;;;8.60;87.70;;;;;;4993552;28;20565;-88
2021/03/11 04:00:12;;;;;;;6.97;5.37;;;8.60;87.60;;;;;;4993109;28;20473;-88
2021/03/11 04:02:38;;;;;;;6.57;4.85;;;8.60;87.60;;;;;;4991148;28;20030;-87
2021/03/11 04:05:05;;;;;;;8.10;6.72;;;8.60;87.60;;;;;;4992464;28;20033;-87
2021/03/11 04:07:32;;;;;;;10.88;7.63;;;8.70;87.60;;;;;;4991502;28;20026;-88
2021/03/11 04:09:58;;;;;;;14.63;11.18;;;8.70;87.70;;;;;;4985477;28;20080;-86
2021/03/11 04:12:24;;;;;;;10.88;8.60;;;8.60;87.90;;;;;;4980754;28;20026;-85
2021/03/11 04:14:51;;;;;;;11.27;8.98;;;8.70;88.00;;;;;;4987006;28;20031;-84
2021/03/11 04:17:18;;;;;;;14.07;11.27;;;8.70;88.00;;;;;;4984403;28;20477;-85
2021/03/11 04:19:44;;;;;;;12.80;10.15;;;8.70;88.20;;;;;;4978699;28;20033;-83
2021/03/11 04:22:10;;;;;;;11.70;9.02;;;8.70;88.20;;;;;;4987204;28;20112;-85
2021/03/11 04:24:37;;;;;;;11.15;8.32;;;8.80;88.30;;;;;;4992011;28;20110;-86
2021/03/11 04:27:05;;;;;;;10.93;7.57;;;8.80;88.30;;;;;;4989156;28;20037;-87
2021/03/11 04:29:32;;;;;;;11.90;9.40;;;8.80;88.30;;;;;;4992239;28;20027;-86
2021/03/11 04:31:58;;;;;;;10.25;7.80;;;8.80;88.20;;;;;;4989626;28;20540;-86
2021/03/11 04:34:24;;;;;;;11.60;8.80;;;8.90;88.30;;;;;;4983673;28;20030;-86
2021/03/11 04:36:50;;;;;;;15.88;11.48;;;8.80;88.40;;;;;;4991751;28;20041;-86
2021/03/11 04:39:18;;;;;;;15.38;11.82;;;8.90;88.40;;;;;;4988195;28;20367;-88
2021/03/11 04:41:44;;;;;;;10.45;8.15;;;8.90;88.40;;;;;;4992855;28;20030;-88
2021/03/11 04:44:10;;;;;;;11.73;9.30;;;8.90;88.50;;;;;;4981985;28;20048;-86
2021/03/11 04:46:38;;;;;;;13.95;10.70;;;8.90;88.40;;;;;;4991777;28;20046;-86
2021/03/11 04:49:04;;;;;;;13.40;10.05;;;9.00;88.40;;;;;;4974995;28;20115;-84
2021/03/11 04:51:31;;;;;;;12.30;9.50;;;9.00;88.90;;;;;;4982888;28;20026;-86
2021/03/11 04:53:57;;;;;;;10.10;7.78;;;9.00;88.30;;;;;;4981047;28;20097;-87
2021/03/11 04:56:24;;;;;;;12.60;9.43;;;9.00;88.20;;;;;;4988691;28;20113;-87
2021/03/11 04:58:50;;;;;;;13.90;10.52;;;9.10;88.10;;;;;;4989664;28;20037;-87
2021/03/11 05:01:22;;;;;;;14.35;10.38;;;9.10;88.10;;;;;;4985473;28;20046;-87
2021/03/11 05:03:50;;;;;;;10.00;7.68;;;9.10;88.20;;;;;;4989882;28;20030;-87
2021/03/11 05:06:16;;;;;;;9.43;7.03;;;9.20;88.00;;;;;;4991179;28;20026;-88
2021/03/11 05:08:42;;;;;;;14.40;10.02;;;9.20;88.00;;;;;;4986554;28;20029;-87
2021/03/11 05:11:10;;;;;;;12.77;9.43;;;9.20;87.90;;;;;;4990220;28;20032;-87
2021/03/11 05:13:35;;;;;;;14.13;10.10;;;9.20;87.90;;;;;;4988429;28;20499;-86
2021/03/11 05:16:01;;;;;;;11.75;9.20;;;9.30;88.60;;;;;;4978383;28;20118;-85
2021/03/11 05:18:27;;;;;;;17.52;13.10;;;9.30;87.80;;;;;;4987368;28;20381;-87
2021/03/11 05:20:54;;;;;;;14.65;10.82;;;9.30;87.80;;;;;;4985757;28;20393;-88
2021/03/11 05:23:20;;;;;;;14.50;10.52;;;9.30;87.80;;;;;;4991432;28;20022;-88
2021/03/11 05:25:47;;;;;;;16.50;11.73;;;9.40;87.80;;;;;;4990467;28;20548;-89
2021/03/11 05:28:13;;;;;;;14.65;11.35;;;9.40;87.80;;;;;;4990591;28;20493;-89
2021/03/11 05:30:39;;;;;;;13.70;8.82;;;9.40;87.70;;;;;;4991404;28;20076;-89
2021/03/11 05:33:04;;;;;;;14.73;11.32;;;9.50;87.60;;;;;;4981845;28;20080;-87
2021/03/11 05:35:30;;;;;;;11.10;7.65;;;9.50;87.50;;;;;;4984286;28;20030;-87
2021/03/11 05:37:56;;;;;;;14.30;11.00;;;9.50;87.40;;;;;;4989626;28;20033;-89
2021/03/11 05:40:23;;;;;;;15.85;12.13;;;9.60;87.30;;;;;;4990003;28;20026;-88
2021/03/11 05:42:51;;;;;;;17.08;12.60;;;9.60;87.30;;;;;;4991473;28;20057;-88
2021/03/11 05:45:18;;;;;;;11.23;7.97;;;9.60;87.40;;;;;;4990029;28;20054;-86
2021/03/11 05:47:45;;;;;;;11.90;8.52;;;9.60;87.40;;;;;;4981239;28;20096;-88
2021/03/11 05:50:12;;;;;;;13.80;10.23;;;9.60;87.40;;;;;;4988643;28;20106;-87
2021/03/11 05:52:38;;;;;;;16.25;11.50;;;9.60;87.50;;;;;;4990132;28;20066;-87
2021/03/11 05:55:06;;;;;;;11.90;8.65;;;9.60;87.70;;;;;;4990037;28;20030;-88
2021/03/11 05:57:32;;;;;;;10.73;8.02;;;9.60;87.80;;;;;;4989649;28;20044;-87
2021/03/11 05:59:57;;;;;;;16.50;11.70;;;9.60;87.70;;;;;;4982881;28;20038;-86
2021/03/11 06:02:24;;;;;;;13.10;9.25;;;9.60;88.00;;;;;;4987991;28;20571;-87
2021/03/11 06:04:54;;;;;;;14.35;9.55;;;9.60;88.10;;;;;;4987771;28;20081;-87
2021/03/11 06:07:23;;;;;;;13.55;10.25;;;9.70;88.20;;;;;;4990698;28;20030;-87
2021/03/11 06:10:01;;;;;;;12.88;9.48;;;9.70;88.20;;;;;;4980365;28;20022;-88
2021/03/11 06:12:28;;;;;;;15.02;10.50;;;9.70;88.20;;;;;;4989091;28;20035;-87
2021/03/11 06:15:01;;;;;;;13.50;9.95;;;9.70;88.20;;;;;;4987760;28;20058;-88
2021/03/11 06:17:31;;;;;;;15.20;9.73;;;9.70;88.10;;;;;;4991393;28;20038;-87
2021/03/11 06:19:58;;;;;;;12.13;9.50;;;9.80;88.10;;;;;;4988976;28;20030;-88
2021/03/11 06:22:24;;;;;;;11.23;8.73;;;9.80;87.90;;;;;;4991686;28;20030;-86
2021/03/11 06:24:50;;;;;;;10.50;7.72;;;9.80;87.80;;;;;;4990288;28;20493;-86
2021/03/11 06:27:16;;;;;;;11.85;8.40;;;9.90;87.70;;;;;;4990467;28;20030;-86
2021/03/11 06:29:42;;;;;;;12.95;7.22;;;9.90;87.50;;;;;;4991042;28;20461;-86
2021/03/11 06:32:09;;;;;;;11.70;6.47;;;9.90;87.30;;;;;;4992099;28;20027;-89
2021/03/11 06:34:42;;;;;;;10.65;7.45;;;10.00;87.20;;;;;;4989618;28;20040;-87
2021/03/11 06:37:08;;;;;;;15.23;9.30;;;10.00;87.00;;;;;;4991914;28;20033;-89
2021/03/11 06:39:37;;;;;;;11.32;7.97;;;10.10;86.80;;;;;;4990083;28;20065;-89
2021/03/11 06:42:04;;;;;;;11.82;7.80;;;10.20;86.70;;;;;;4991784;28;20030;-87
2021/03/11 06:44:41;;;;;;;13.05;8.93;;;10.20;86.50;;;;;;4989114;28;20476;-87
2021/03/11 06:47:07;;;;;;;11.38;8.23;;;10.20;86.20;;;;;;4991767;28;20074;-88
2021/03/11 06:49:32;;;;;;;9.98;6.78;;;10.20;86.00;;;;;;4991780;28;20101;-89
2021/03/11 06:52:14;;;;;;;13.30;9.00;;;10.30;85.90;;;;;;4990096;28;20121;-88
2021/03/11 06:54:57;;;;;;;12.48;7.85;;;10.40;85.70;;;;;;4990875;28;20028;-88
2021/03/11 06:57:39;;;;;;;9.90;6.30;;;10.40;85.60;;;;;;4984614;28;20073;-89
2021/03/11 07:00:17;;;;;;;9.48;6.40;;;10.40;85.50;;;;;;4991088;28;20034;-89
2021/03/11 07:02:51;;;;;;;10.35;7.07;;;10.40;85.30;;;;;;4982991;28;20037;-90
2021/03/11 07:05:18;;;;;;;10.98;6.53;;;10.50;85.30;;;;;;4995214;28;20037;-88
2021/03/11 07:07:44;;;;;;;12.40;8.02;;;10.50;85.20;;;;;;4995269;28;20077;-87
2021/03/11 07:10:30;;;;;;;9.20;7.07;;;10.50;85.10;;;;;;4992892;28;20027;-88
2021/03/11 07:12:57;;;;;;;8.20;6.05;;;10.50;85.00;;;;;;4992791;28;20073;-88
2021/03/11 07:15:25;;;;;;;9.40;6.55;;;10.50;84.90;;;;;;4993546;28;20488;-87
2021/03/11 07:17:52;;;;;;;9.20;6.38;;;10.60;84.90;;;;;;4993781;28;20034;-88
2021/03/11 07:20:20;;;;;;;8.80;5.03;;;10.70;84.50;;;;;;4993359;28;20026;-87
2021/03/11 07:23:09;;;;;;;9.77;5.63;;;10.70;84.10;;;;;;4992440;28;20070;-87
2021/03/11 07:25:37;;;;;;;8.77;5.40;;;10.80;83.60;;;;;;5007911;28;20034;-89
2021/03/11 07:28:05;;;;;;;9.05;4.78;;;10.90;83.10;;;;;;4992901;28;20182;-89
2021/03/11 07:30:46;;;;;;;8.45;4.40;;;11.00;82.50;;;;;;4993793;28;20523;-90
2021/03/11 07:33:12;;;;;;;7.80;3.65;;;11.10;81.80;;;;;;4993880;28;20029;-89
2021/03/11 07:35:38;;;;;;;7.13;3.53;;;11.20;81.40;;;;;;4988867;28;20014;-90
2021/03/11 07:38:06;;;;;;;9.50;3.83;;;11.30;80.60;;;;;;4995348;28;20469;-90
2021/03/11 07:40:33;;;;;;;9.45;3.80;;;11.40;79.80;;;;;;4982725;28;20043;-91
2021/03/11 07:43:00;;;;;;;10.68;3.40;;;11.50;79.70;;;;;;4987492;28;20026;-90
2021/03/11 07:45:26;;;;;;;7.07;3.08;;;11.50;77.90;;;;;;4989087;28;20029;-91
2021/03/11 07:47:53;;;;;;;9.75;3.63;;;11.60;77.30;;;;;;4994945;28;20022;-90
2021/03/11 07:50:20;;;;;;;8.80;2.92;;;11.70;77.10;;;;;;4985781;28;20027;-96
2021/03/11 07:52:45;;;;;;;6.45;2.70;;;11.80;76.80;;;;;;4983299;28;20036;-89
2021/03/11 07:55:13;;;;;;;7.70;3.10;;;11.90;76.70;;;;;;4991726;28;20034;-93
2021/03/11 07:57:49;;;;;;;8.13;2.90;;;12.00;76.40;;;;;;4982231;28;20089;-90
2021/03/11 08:00:23;;;;;;;7.50;3.10;;;12.10;76.20;;;;;;4976222;28;20042;-86
2021/03/11 08:03:00;;;;;;;7.10;3.00;;;12.10;75.90;;;;;;4985697;28;20528;-88
2021/03/11 08:05:30;;;;;;;5.43;2.75;;;12.10;75.90;;;;;;4994048;28;20534;-89
2021/03/11 08:08:19;;;;;;;6.47;3.17;;;12.10;76.00;;;;;;4992261;28;20540;-87
2021/03/11 08:10:55;;;;;;;5.68;2.72;;;12.00;75.90;;;;;;4990529;28;20026;-88
2021/03/11 08:13:30;;;;;;;7.20;3.25;;;12.00;75.60;;;;;;4986999;28;20023;-88
2021/03/11 08:15:57;;;;;;;8.65;2.72;;;12.00;74.70;;;;;;4981312;28;20038;-86
2021/03/11 08:18:34;;;;;;;7.57;2.70;;;12.00;74.60;;;;;;4987533;28;20037;-88
2021/03/11 08:21:00;;;;;;;6.85;2.55;;;12.10;74.10;;;;;;4986969;28;20049;-86
2021/03/11 08:23:35;;;;;;;8.35;2.53;;;12.20;73.80;;;;;;4988560;28;20041;-86
2021/03/11 08:26:02;;;;;;;8.60;2.40;;;12.20;73.20;;;;;;4985652;28;20066;-87
2021/03/11 08:28:28;;;;;;;7.00;2.45;;;12.30;72.90;;;;;;4985827;28;20512;-86
2021/03/11 08:30:55;;;;;;;7.22;2.40;;;12.30;71.60;;;;;;4987364;28;20117;-88
2021/03/11 08:33:20;;;;;;;10.55;3.05;;;12.40;71.60;;;;;;4985625;28;20018;-87
2021/03/11 08:35:50;;;;;;;8.10;2.30;;;12.40;71.30;;;;;;4991350;28;20038;-86
2021/03/11 08:38:19;;;;;;;7.43;2.25;;;12.50;70.20;;;;;;4990859;28;20033;-88
2021/03/11 08:41:06;;;;;;;12.15;2.60;;;12.50;69.70;;;;;;4983093;28;20046;-87
2021/03/11 08:43:38;;;;;;;11.35;2.97;;;12.60;68.50;;;;;;4981526;28;20030;-87
2021/03/11 08:46:15;;;;;;;9.47;2.60;;;12.60;67.10;;;;;;4988368;28;20030;-88
2021/03/11 08:48:58;;;;;;;9.82;2.78;;;12.60;66.80;;;;;;4989243;28;20022;-85
2021/03/11 08:51:24;;;;;;;10.38;2.58;;;12.70;67.00;;;;;;4990384;28;20034;-86
2021/03/11 08:53:58;;;;;;;8.25;2.38;;;12.70;66.70;;;;;;4991011;28;20030;-87
2021/03/11 08:56:27;;;;;;;9.82;2.42;;;12.70;66.60;;;;;;4988063;28;20022;-88
2021/03/11 08:58:57;;;;;;;9.57;2.65;;;12.70;66.60;;;;;;4983074;28;20019;-88
2021/03/11 09:01:40;;;;;;;8.38;2.30;;;12.60;66.50;;;;;;4981164;28;20633;-85
2021/03/11 09:04:31;;;;;;;9.68;2.58;;;12.60;66.70;;;;;;4985482;28;20041;-85
2021/03/11 09:07:08;;;;;;;11.05;2.72;;;12.70;66.20;;;;;;4983039;28;20034;-86
2021/03/11 09:09:45;;;;;;;15.02;2.88;;;12.70;65.70;;;;;;4982932;28;20109;-86
2021/03/11 09:12:18;;;;;;;10.25;2.40;;;12.70;65.30;;;;;;4986898;28;20359;-86
2021/03/11 09:14:45;;;;;;;;;;;12.70;65.00;;;;;;4984529;28;20030;-86
2021/03/11 09:17:23;;;;;;;18.40;3.90;;;12.60;64.80;;;;;;4984704;28;19921;-86
2021/03/11 09:19:55;;;;;;;12.38;2.75;;;12.60;64.40;;;;;;4986361;28;20037;-86
2021/03/11 09:22:33;;;;;;;10.52;3.10;;;12.60;64.80;;;;;;4986791;28;20554;-87
2021/03/11 09:25:06;;;;;;;10.85;2.88;;;12.60;64.50;;;;;;4980248;28;20015;-87
2021/03/11 09:27:34;;;;;;;9.55;2.70;;;12.60;64.50;;;;;;4973964;28;20369;-87
2021/03/11 09:30:04;;;;;;;10.63;2.78;;;12.70;64.80;;;;;;4983988;28;20843;-87
2021/03/11 09:32:31;;;;;;;14.32;3.05;;;12.70;64.70;;;;;;4983626;28;20034;-86
2021/03/11 09:35:17;;;;;;;11.90;3.03;;;12.80;64.30;;;;;;4985988;28;20791;-86
2021/03/11 09:38:00;;;;;;;17.13;3.92;;;12.80;63.90;;;;;;4983254;28;20077;-86
2021/03/11 09:40:26;;;;;;;16.65;3.85;;;12.80;62.80;;;;;;4981746;28;20026;-88
2021/03/11 09:43:28;;;;;;;13.15;3.28;;;12.80;62.20;;;;;;4989287;28;20505;-88
2021/03/11 09:45:53;;;;;;;16.25;3.67;;;12.80;62.20;;;;;;4986220;28;20341;-89
2021/03/11 09:48:33;;;;;;;16.50;3.55;;;12.90;61.70;;;;;;4987689;28;20031;-88
2021/03/11 09:51:09;;;;;;;15.07;3.65;;;12.90;61.60;;;;;;4981628;28;20015;-88
2021/03/11 09:53:50;;;;;;;18.13;4.50;;;12.90;61.30;;;;;;4977744;28;20027;-89
2021/03/11 09:56:29;;;;;;;14.48;3.67;;;12.90;60.40;;;;;;4987333;28;20026;-88
2021/03/11 09:59:15;;;;;;;17.38;3.72;;;12.90;59.90;;;;;;4988818;28;20121;-87
2021/03/11 10:01:46;;;;;;;14.80;3.80;;;12.80;59.50;;;;;;4988866;28;20516;-88
2021/03/11 10:04:14;;;;;;;13.27;3.53;;;12.80;59.30;;;;;;4989062;28;20110;-86
2021/03/11 10:06:57;;;;;;;11.25;3.00;;;12.80;59.50;;;;;;4985255;28;20057;-87
2021/03/11 10:09:24;;;;;;;9.68;2.72;;;12.80;59.90;;;;;;4979372;28;20085;-87
2021/03/11 10:11:52;;;;;;;11.77;3.58;;;12.80;60.30;;;;;;4984048;28;20092;-86
2021/03/11 10:14:21;;;;;;;15.48;3.50;;;12.80;60.30;;;;;;5012879;28;20077;-86
2021/03/11 10:16:52;;;;;;;13.55;3.22;;;12.80;60.10;;;;;;4989063;28;20061;-87
2021/03/11 10:19:24;;;;;;;10.07;2.58;;;12.70;60.10;;;;;;4987398;28;20034;-88
2021/03/11 10:22:06;;;;;;;10.85;3.00;;;12.80;60.80;;;;;;4985314;28;21023;-86
2021/03/11 10:24:49;;;;;;;10.48;2.80;;;12.80;60.60;;;;;;4987210;28;20416;-88
2021/03/11 10:27:22;;;;;;;14.38;3.17;;;12.80;60.20;;;;;;4988061;28;20449;-88
2021/03/11 10:30:05;;;;;;;12.95;3.38;;;12.80;60.70;;;;;;4987716;28;20105;-87
2021/03/11 10:32:31;;;;;;;12.50;2.63;;;12.80;59.80;;;;;;4988604;28;20079;-87
2021/03/11 10:34:57;;;;;;;17.33;3.80;;;12.80;60.10;;;;;;4985624;28;20034;-89
2021/03/11 10:37:31;;;;;;;13.18;3.35;;;12.80;60.30;;;;;;4990433;28;20053;-88
2021/03/11 10:40:00;;;;;;;14.55;3.60;;;12.80;60.40;;;;;;4986985;28;20023;-88
2021/03/11 10:42:38;;;;;;;16.02;4.07;;;12.80;60.50;;;;;;4986260;28;20026;-90
2021/03/11 10:45:04;;;;;;;13.15;3.65;;;12.70;60.60;;;;;;4992099;28;20100;-87
2021/03/11 10:47:30;;;;;;;17.80;3.75;;;12.70;60.50;;;;;;4991061;28;20033;-87
2021/03/11 10:49:56;;;;;;;9.57;3.00;;;12.70;60.20;;;;;;4993953;28;20026;-87
2021/03/11 10:52:22;;;;;;;16.02;3.17;;;12.80;60.50;;;;;;4991162;28;20026;-87
2021/03/11 10:54:48;;;;;;;14.93;4.07;;;12.80;60.50;;;;;;4988031;28;20027;-87
2021/03/11 10:57:21;;;;;;;13.63;3.60;;;12.80;60.30;;;;;;4987460;28;20093;-86
2021/03/11 10:59:58;;;;;;;11.98;3.58;;;12.80;60.60;;;;;;4995934;28;20277;-88
2021/03/11 11:02:27;;;;;;;14.00;3.53;;;12.80;60.50;;;;;;4989566;28;20138;-86
2021/03/11 11:04:55;;;;;;;13.85;3.38;;;12.80;60.30;;;;;;4992467;28;20034;-87
2021/03/11 11:07:22;;;;;;;14.57;3.40;;;12.80;60.20;;;;;;4988243;28;20400;-88
2021/03/11 11:09:49;;;;;;;14.02;3.65;;;12.80;60.10;;;;;;4981465;28;20037;-88
2021/03/11 11:12:17;;;;;;;15.85;3.67;;;12.80;60.50;;;;;;4990364;28;20704;-87
2021/03/11 11:14:44;;;;;;;13.98;3.30;;;12.80;60.70;;;;;;4988480;28;20130;-89
2021/03/11 11:17:10;;;;;;;18.60;4.47;;;12.80;60.90;;;;;;4993780;28;20034;-89
2021/03/11 11:19:37;;;;;;;17.13;3.80;;;12.80;60.60;;;;;;4993399;28;20028;-90
2021/03/11 11:22:03;;;;;;;16.73;4.47;;;12.80;60.80;;;;;;4993445;28;20038;-88
2021/03/11 11:24:28;;;;;;;13.50;3.33;;;12.70;61.10;;;;;;4995573;28;20807;-89
2021/03/11 11:26:58;;;;;;;15.70;3.88;;;12.60;61.60;;;;;;4986966;28;20189;-89
2021/03/11 11:29:24;;;;;;;11.70;3.13;;;12.60;62.10;;;;;;4978870;28;20081;-89
2021/03/11 11:31:51;;;;;;;12.10;3.03;;;12.50;62.60;;;;;;4988864;28;20034;-89
2021/03/11 11:34:16;;;;;;;17.35;3.97;;;12.60;62.20;;;;;;4992245;28;20030;-88
2021/03/11 11:36:42;;;;;;;12.25;3.08;;;12.60;61.60;;;;;;4991973;28;20033;-86
2021/03/11 11:39:09;;;;;;;10.75;3.35;;;12.60;61.30;;;;;;4991005;28;20492;-87
2021/03/11 11:41:40;;;;;;;12.57;3.20;;;12.60;60.40;;;;;;4991497;28;20034;-88
2021/03/11 11:44:07;;;;;;;9.40;2.83;;;12.60;60.40;;;;;;4990781;28;20022;-88
2021/03/11 11:46:33;;;;;;;17.17;3.70;;;12.60;60.40;;;;;;4990573;28;20030;-88
2021/03/11 11:48:59;;;;;;;12.27;2.97;;;12.60;60.20;;;;;;4980475;28;20023;-88
2021/03/11 11:51:25;;;;;;;12.20;2.70;;;12.60;60.40;;;;;;4988826;28;20058;-90
2021/03/11 11:53:51;;;;;;;11.43;3.22;;;12.60;60.30;;;;;;4991290;28;20041;-90
2021/03/11 11:56:17;;;;;;;10.43;2.88;;;12.70;60.20;;;;;;4992358;28;20034;-88
2021/03/11 11:58:46;;;;;;;12.55;3.17;;;12.80;60.90;;;;;;4992000;28;20046;-88
2021/03/11 12:01:14;;;;;;;16.75;3.60;;;12.80;60.00;;;;;;4993352;28;20042;-89
2021/03/11 12:03:39;;;;;;;14.55;3.65;;;12.90;60.10;;;;;;4991198;28;20022;-90
2021/03/11 12:06:05;;;;;;;13.52;3.50;;;12.80;59.50;;;;;;4991589;28;20026;-88
2021/03/11 12:08:31;;;;;;;15.80;3.13;;;12.90;59.70;;;;;;4989641;28;20126;-89
2021/03/11 12:10:57;;;;;;;13.35;3.10;;;12.90;59.60;;;;;;4984193;28;20080;-91
2021/03/11 12:13:22;;;;;;;10.90;2.38;;;13.00;59.30;;;;;;4984112;28;20030;-90
2021/03/11 12:15:48;;;;;;;7.97;2.45;;;13.00;59.10;;;;;;4990706;28;20042;-95
2021/03/11 12:18:14;;;;;;;9.88;2.80;;;13.00;58.50;;;;;;4993477;28;20110;-96
2021/03/11 12:20:40;;;;;;;11.07;2.45;;;13.10;58.40;;;;;;4990441;28;20122;-90
2021/03/11 12:23:06;;;;;;;10.55;2.38;;;13.10;58.30;;;;;;4988716;28;20058;-89
2021/03/11 12:25:32;;;;;;;9.80;2.58;;;13.10;58.40;;;;;;4975830;28;20385;-89
2021/03/11 12:27:58;;;;;;;11.27;2.80;;;13.10;57.80;;;;;;4993711;28;20033;-90
2021/03/11 12:30:25;;;;;;;11.10;2.40;;;12.90;57.60;;;;;;4994291;28;20412;-89
2021/03/11 12:32:51;;;;;;;12.48;3.00;;;13.00;57.80;;;;;;4979612;28;20030;-89
2021/03/11 12:35:16;;;;;;;7.53;2.20;;;13.00;57.70;;;;;;4981033;28;20109;-89
2021/03/11 12:37:43;;;;;;;13.85;3.10;;;13.00;58.00;;;;;;4988866;28;20474;-88
2021/03/11 12:40:10;;;;;;;11.55;2.83;;;13.10;57.80;;;;;;4993185;28;20038;-89
2021/03/11 12:42:37;;;;;;;11.18;2.70;;;13.20;57.40;;;;;;4992203;28;20030;-89
2021/03/11 12:45:04;;;;;;;10.38;2.70;;;13.20;57.70;;;;;;4992977;28;20025;-89
2021/03/11 12:47:30;;;;;;;12.68;2.88;;;13.20;57.70;;;;;;4984561;28;20045;-88
2021/03/11 12:49:56;;;;;;;10.43;3.03;;;13.30;57.80;;;;;;4988512;28;20026;-90